createdAt,value
2023-04-15T00:01:10.252Z,9.50
2023-04-15T00:03:37.070Z,8.50
2023-04-15T00:06:04.114Z,7.75
2023-04-15T00:08:31.005Z,7.10
2023-04-15T00:11:02.604Z,7.85
2023-04-15T00:13:29.565Z,11.40
2023-04-15T00:15:56.156Z,8.43
2023-04-15T00:18:23.336Z,7.38
2023-04-15T00:20:50.147Z,7.75
2023-04-15T00:23:18.153Z,6.68
2023-04-15T00:25:44.911Z,7.18
2023-04-15T00:28:11.596Z,6.00
2023-04-15T00:30:38.937Z,9.40
2023-04-15T00:33:05.758Z,6.45
2023-04-15T00:35:32.768Z,8.38
2023-04-15T00:37:59.861Z,6.18
2023-04-15T00:40:27.786Z,9.35
2023-04-15T00:42:54.379Z,12.63
2023-04-15T00:45:21.312Z,7.93
2023-04-15T00:47:48.287Z,8.45
2023-04-15T00:50:14.930Z,8.40
2023-04-15T00:52:41.815Z,9.88
2023-04-15T00:55:09.510Z,8.48
2023-04-15T00:57:38.750Z,8.70
2023-04-15T01:00:08.763Z,9.70
2023-04-15T01:02:36.756Z,8.93
2023-04-15T01:05:04.281Z,8.93
2023-04-15T01:07:31.932Z,11.20
2023-04-15T01:09:58.841Z,6.70
2023-04-15T01:12:27.527Z,7.60
2023-04-15T01:14:55.385Z,6.43
2023-04-15T01:17:22.152Z,6.50
2023-04-15T01:19:48.866Z,10.48
2023-04-15T01:22:16.042Z,10.00
2023-04-15T01:24:51.269Z,8.48
2023-04-15T01:27:19.202Z,9.30
2023-04-15T01:29:46.365Z,7.40
2023-04-15T01:32:12.890Z,8.90
2023-04-15T01:34:39.467Z,12.27
2023-04-15T01:37:07.345Z,7.63
2023-04-15T01:39:34.484Z,8.45
2023-04-15T01:42:01.087Z,9.52
2023-04-15T01:44:27.677Z,9.52
2023-04-15T01:46:54.454Z,9.15
2023-04-15T01:49:21.010Z,9.27
2023-04-15T01:51:47.734Z,9.88
2023-04-15T01:54:14.345Z,11.45
2023-04-15T01:56:41.029Z,9.70
2023-04-15T01:59:07.698Z,10.30
2023-04-15T02:01:34.362Z,11.30
2023-04-15T02:04:02.602Z,8.48
2023-04-15T02:06:31.679Z,9.15
2023-04-15T02:08:59.181Z,13.73
2023-04-15T02:11:26.002Z,11.02
2023-04-15T02:13:53.032Z,11.98
2023-04-15T02:16:20.614Z,9.95
2023-04-15T02:18:47.459Z,9.43
2023-04-15T02:21:14.591Z,12.75
2023-04-15T02:23:41.471Z,11.48
2023-04-15T02:26:08.262Z,7.93
2023-04-15T02:28:35.042Z,8.70
2023-04-15T02:31:06.455Z,7.90
2023-04-15T02:33:34.203Z,11.02
2023-04-15T02:36:01.034Z,12.70
2023-04-15T02:38:28.190Z,11.38
2023-04-15T02:40:54.827Z,9.50
2023-04-15T02:43:21.423Z,8.45
2023-04-15T02:45:51.196Z,12.32
2023-04-15T02:48:19.741Z,11.93
2023-04-15T02:50:47.084Z,11.25
2023-04-15T02:53:15.441Z,9.45
2023-04-15T02:55:42.887Z,9.80
2023-04-15T02:58:09.814Z,10.82
2023-04-15T03:00:36.697Z,10.82
2023-04-15T03:03:06.628Z,11.90
2023-04-15T03:05:33.677Z,10.57
2023-04-15T03:08:03.352Z,9.68
2023-04-15T03:10:30.009Z,13.02
2023-04-15T03:12:57.144Z,7.45
2023-04-15T03:15:24.113Z,10.23
2023-04-15T03:17:52.893Z,10.57
2023-04-15T03:20:20.903Z,9.38
2023-04-15T03:22:48.596Z,9.93
2023-04-15T03:25:15.681Z,11.90
2023-04-15T03:27:43.042Z,9.07
2023-04-15T03:30:12.304Z,11.98
2023-04-15T03:32:40.237Z,10.85
2023-04-15T03:35:08.289Z,11.90
2023-04-15T03:37:34.929Z,12.52
2023-04-15T03:40:02.496Z,8.98
2023-04-15T03:42:29.115Z,10.75
2023-04-15T03:44:55.898Z,9.27
2023-04-15T03:47:22.899Z,13.55
2023-04-15T03:49:49.451Z,12.63
2023-04-15T03:52:16.309Z,11.98
2023-04-15T03:54:42.913Z,12.80
2023-04-15T03:57:09.827Z,11.70
2023-04-15T03:59:36.450Z,12.18
2023-04-15T04:02:03.184Z,9.75
2023-04-15T04:04:30.095Z,13.88
2023-04-15T04:06:56.896Z,13.32
2023-04-15T04:09:23.567Z,12.73
2023-04-15T04:11:50.385Z,11.30
2023-04-15T04:14:17.022Z,8.82
2023-04-15T04:16:43.723Z,10.20
2023-04-15T04:19:10.400Z,10.73
2023-04-15T04:21:37.120Z,12.27
2023-04-15T04:24:03.862Z,12.05
2023-04-15T04:26:30.502Z,11.48
2023-04-15T04:28:59.782Z,13.00
2023-04-15T04:31:28.089Z,10.77
2023-04-15T04:33:54.729Z,10.32
2023-04-15T04:36:21.366Z,11.65
2023-04-15T04:38:47.952Z,17.73
2023-04-15T04:41:14.648Z,13.77
2023-04-15T04:43:42.323Z,13.10
2023-04-15T04:46:09.214Z,11.07
2023-04-15T04:48:35.898Z,12.57
2023-04-15T04:51:02.701Z,11.30
2023-04-15T04:53:29.371Z,12.20
2023-04-15T04:55:56.326Z,14.90
2023-04-15T04:58:22.939Z,15.13
2023-04-15T05:00:49.625Z,13.85
2023-04-15T05:03:16.456Z,13.73
2023-04-15T05:05:43.473Z,14.05
2023-04-15T05:08:10.048Z,12.20
2023-04-15T05:10:36.676Z,13.00
2023-04-15T05:13:03.351Z,12.93
2023-04-15T05:15:29.984Z,13.20
2023-04-15T05:17:56.841Z,13.13
2023-04-15T05:20:23.504Z,12.52
2023-04-15T05:22:50.323Z,13.07
2023-04-15T05:25:17.015Z,11.25
2023-04-15T05:27:43.750Z,17.38
2023-04-15T05:30:13.438Z,13.32
2023-04-15T05:32:40.887Z,17.05
2023-04-15T05:35:08.559Z,12.88
2023-04-15T05:37:35.503Z,12.48
2023-04-15T05:40:02.299Z,16.92
2023-04-15T05:42:29.068Z,14.93
2023-04-15T05:44:55.705Z,13.38
2023-04-15T05:47:22.375Z,13.57
2023-04-15T05:49:48.956Z,13.82
2023-04-15T05:52:15.535Z,12.60
2023-04-15T05:54:42.232Z,13.23
2023-04-15T05:57:08.736Z,14.18
2023-04-15T05:59:35.380Z,12.05
2023-04-15T06:02:02.065Z,13.90
2023-04-15T06:04:28.864Z,11.60
2023-04-15T06:06:55.575Z,13.82
2023-04-15T06:09:22.917Z,12.82
2023-04-15T06:11:49.533Z,12.77
2023-04-15T06:14:16.860Z,17.92
2023-04-15T06:16:45.397Z,13.88
2023-04-15T06:19:12.356Z,12.25
2023-04-15T06:21:39.018Z,11.98
2023-04-15T06:24:06.026Z,11.32
2023-04-15T06:26:33.385Z,13.18
2023-04-15T06:29:00.161Z,11.00
2023-04-15T06:31:27.297Z,11.88
2023-04-15T06:33:53.968Z,13.77
2023-04-15T06:36:21.065Z,11.13
2023-04-15T06:38:47.652Z,12.65
2023-04-15T06:41:14.372Z,12.40
2023-04-15T06:43:41.011Z,11.80
2023-04-15T06:46:07.653Z,11.48
2023-04-15T06:48:34.305Z,10.65
2023-04-15T06:51:01.164Z,14.52
2023-04-15T06:53:30.583Z,15.02
2023-04-15T06:55:57.164Z,12.88
2023-04-15T06:58:23.729Z,13.35
2023-04-15T07:00:50.401Z,15.05
2023-04-15T07:03:17.783Z,14.25
2023-04-15T07:05:44.805Z,12.80
2023-04-15T07:08:11.406Z,10.30
2023-04-15T07:10:38.143Z,12.25
2023-04-15T07:13:05.687Z,13.10
2023-04-15T07:15:32.295Z,13.82
2023-04-15T07:17:58.953Z,14.52
2023-04-15T07:20:25.922Z,12.20
2023-04-15T07:22:53.147Z,14.73
2023-04-15T07:25:19.895Z,12.65
2023-04-15T07:27:46.539Z,12.55
2023-04-15T07:30:13.391Z,11.10
2023-04-15T07:32:40.543Z,14.30
2023-04-15T07:35:09.409Z,11.82
2023-04-15T07:37:36.509Z,11.45
2023-04-15T07:40:07.211Z,11.43
2023-04-15T07:42:34.592Z,14.73
2023-04-15T07:45:01.490Z,14.02
2023-04-15T07:47:28.239Z,12.23
2023-04-15T07:49:54.884Z,13.77
2023-04-15T07:52:21.583Z,12.05
2023-04-15T07:54:48.149Z,12.20
2023-04-15T07:57:14.774Z,11.43
2023-04-15T07:59:41.769Z,10.40
2023-04-15T08:02:08.619Z,12.02
2023-04-15T08:04:35.488Z,10.45
2023-04-15T08:07:03.800Z,9.27
2023-04-15T08:09:30.538Z,10.40
2023-04-15T08:11:57.636Z,9.48
2023-04-15T08:14:24.569Z,11.77
2023-04-15T08:16:51.497Z,10.35
2023-04-15T08:19:18.133Z,7.50
2023-04-15T08:21:45.020Z,9.50
2023-04-15T08:24:13.645Z,6.95
2023-04-15T08:26:40.293Z,7.85
2023-04-15T08:29:06.919Z,7.43
2023-04-15T08:31:33.943Z,7.30
2023-04-15T08:34:00.530Z,8.20
2023-04-15T08:36:27.175Z,8.00
2023-04-15T08:38:53.897Z,8.65
2023-04-15T08:41:29.623Z,6.55
2023-04-15T08:44:03.674Z,6.85
2023-04-15T08:46:32.295Z,8.13
2023-04-15T08:48:58.993Z,7.35
2023-04-15T08:51:26.621Z,6.82
2023-04-15T08:53:53.853Z,6.20
2023-04-15T08:56:24.867Z,7.90
2023-04-15T08:58:52.509Z,5.65
2023-04-15T09:01:19.425Z,6.82
2023-04-15T09:03:49.035Z,5.85
2023-04-15T09:06:17.320Z,5.88
2023-04-15T09:08:44.772Z,5.25
2023-04-15T09:11:11.430Z,6.47
2023-04-15T09:13:38.254Z,5.55
2023-04-15T09:16:08.466Z,4.93
2023-04-15T09:18:37.223Z,4.80
2023-04-15T09:21:17.407Z,5.63
2023-04-15T09:24:03.030Z,5.03
2023-04-15T09:26:40.535Z,4.28
2023-04-15T09:29:09.343Z,4.40
2023-04-15T09:31:40.625Z,4.35
2023-04-15T09:34:07.595Z,5.22
2023-04-15T09:36:46.820Z,5.00
2023-04-15T09:39:14.486Z,7.03
2023-04-15T09:41:41.514Z,4.43
2023-04-15T09:44:22.743Z,4.93
2023-04-15T09:46:49.281Z,3.22
2023-04-15T09:49:16.146Z,3.88
2023-04-15T09:51:51.205Z,5.55
2023-04-15T09:54:24.407Z,3.78
2023-04-15T09:56:51.062Z,4.57
2023-04-15T09:59:18.714Z,3.30
2023-04-15T10:01:47.051Z,4.43
2023-04-15T10:04:14.059Z,3.60
2023-04-15T10:06:41.202Z,3.90
2023-04-15T10:09:08.572Z,4.82
2023-04-15T10:11:35.550Z,3.83
2023-04-15T10:14:03.105Z,4.22
2023-04-15T10:16:32.958Z,5.00
2023-04-15T10:19:01.723Z,4.78
2023-04-15T10:21:30.740Z,4.40
2023-04-15T10:23:58.841Z,4.25
2023-04-15T10:26:26.580Z,4.07
2023-04-15T10:28:54.580Z,3.50
2023-04-15T10:31:22.052Z,3.60
2023-04-15T10:33:50.010Z,5.93
2023-04-15T10:36:18.979Z,4.45
2023-04-15T10:38:46.717Z,3.92
2023-04-15T10:41:21.215Z,9.45
2023-04-15T10:43:57.805Z,6.32
2023-04-15T10:46:40.177Z,4.72
2023-04-15T10:49:14.177Z,6.07
2023-04-15T10:51:46.030Z,4.15
2023-04-15T10:54:24.824Z,5.18
2023-04-15T10:57:06.697Z,5.53
2023-04-15T10:59:37.037Z,3.50
2023-04-15T11:02:06.831Z,3.10
2023-04-15T11:04:57.516Z,4.13
2023-04-15T11:07:34.803Z,4.28
2023-04-15T11:10:01.919Z,2.63
2023-04-15T11:12:36.330Z,4.72
2023-04-15T11:15:28.493Z,4.32
2023-04-15T11:17:55.824Z,2.92
2023-04-15T11:20:23.866Z,3.55
2023-04-15T11:22:52.033Z,2.55
2023-04-15T11:25:29.956Z,2.55
2023-04-15T11:27:57.622Z,3.05
2023-04-15T11:30:29.728Z,2.63
2023-04-15T11:33:08.643Z,3.22
2023-04-15T11:35:36.311Z,4.30
2023-04-15T11:38:04.554Z,2.80
2023-04-15T11:40:40.211Z,4.28
2023-04-15T11:43:14.569Z,3.55
2023-04-15T11:45:52.845Z,3.60
2023-04-15T11:48:21.875Z,4.32
2023-04-15T11:50:57.478Z,2.45
2023-04-15T11:53:25.956Z,3.45
2023-04-15T11:55:53.986Z,2.17
2023-04-15T11:58:23.286Z,3.83
2023-04-15T12:00:55.514Z,3.58
2023-04-15T12:03:27.491Z,3.60
2023-04-15T12:06:08.513Z,4.32
2023-04-15T12:09:00.037Z,2.55
2023-04-15T12:11:26.534Z,3.03
2023-04-15T12:14:25.544Z,2.00
2023-04-15T12:16:58.070Z,2.55
2023-04-15T12:19:45.636Z,1.95
2023-04-15T12:22:14.218Z,3.40
2023-04-15T12:24:44.010Z,3.15
2023-04-15T12:27:16.206Z,1.80
2023-04-15T12:29:43.207Z,1.60
2023-04-15T12:32:09.814Z,1.67
2023-04-15T12:34:40.798Z,2.05
2023-04-15T12:37:10.083Z,2.17
2023-04-15T12:39:40.524Z,3.80
2023-04-15T12:42:08.336Z,3.45
2023-04-15T12:44:36.257Z,1.88
2023-04-15T12:47:03.633Z,1.77
2023-04-15T12:49:32.506Z,1.63
2023-04-15T12:52:00.741Z,4.38
2023-04-15T12:54:29.300Z,1.90
2023-04-15T12:56:57.746Z,2.00
2023-04-15T12:59:24.836Z,1.48
2023-04-15T13:01:53.338Z,2.00
2023-04-15T13:04:21.193Z,2.08
2023-04-15T13:06:48.216Z,1.95
2023-04-15T13:09:15.594Z,2.42
2023-04-15T13:11:42.521Z,1.88
2023-04-15T13:14:11.691Z,1.48
2023-04-15T13:16:38.938Z,2.53
2023-04-15T13:19:05.597Z,3.78
2023-04-15T13:21:35.133Z,1.75
2023-04-15T13:24:02.558Z,1.90
2023-04-15T13:26:29.312Z,2.90
2023-04-15T13:28:56.258Z,2.38
2023-04-15T13:31:22.892Z,3.72
2023-04-15T13:33:49.568Z,4.80
2023-04-15T13:36:16.285Z,2.88
2023-04-15T13:38:42.890Z,3.15
2023-04-15T13:41:09.518Z,2.83
2023-04-15T13:43:36.592Z,3.92
2023-04-15T13:46:03.508Z,4.20
2023-04-15T13:48:30.234Z,3.22
2023-04-15T13:50:57.322Z,2.45
2023-04-15T13:53:34.002Z,1.95
2023-04-15T13:56:09.133Z,4.18
2023-04-15T13:58:36.873Z,2.40
2023-04-15T14:01:05.732Z,2.30
2023-04-15T14:03:33.723Z,0.80
2023-04-15T14:06:00.687Z,1.40
2023-04-15T14:08:27.304Z,2.25
2023-04-15T14:10:53.926Z,1.88
2023-04-15T14:13:20.642Z,2.03
2023-04-15T14:15:47.396Z,2.75
2023-04-15T14:18:14.472Z,2.10
2023-04-15T14:20:42.160Z,3.88
2023-04-15T14:23:08.746Z,1.17
2023-04-15T14:25:35.394Z,1.02
2023-04-15T14:28:03.292Z,2.60
2023-04-15T14:30:29.991Z,1.30
2023-04-15T14:32:56.744Z,2.40
2023-04-15T14:35:25.910Z,1.52
2023-04-15T14:37:56.053Z,2.75
2023-04-15T14:40:23.056Z,1.27
2023-04-15T14:42:49.958Z,1.85
2023-04-15T14:45:16.694Z,1.60
2023-04-15T14:47:43.741Z,3.40
2023-04-15T14:50:17.975Z,2.10
2023-04-15T14:52:44.715Z,5.07
2023-04-15T14:55:12.496Z,3.55
2023-04-15T14:57:42.815Z,0.98
2023-04-15T15:00:13.184Z,3.30
2023-04-15T15:02:44.066Z,2.05
2023-04-15T15:05:11.440Z,3.83
2023-04-15T15:07:40.786Z,2.58
2023-04-15T15:10:07.959Z,2.55
2023-04-15T15:12:34.630Z,1.50
2023-04-15T15:15:04.968Z,2.08
2023-04-15T15:17:36.424Z,4.90
2023-04-15T15:20:04.037Z,1.65
2023-04-15T15:22:30.621Z,1.33
2023-04-15T15:24:59.177Z,1.10
2023-04-15T15:27:25.922Z,3.17
2023-04-15T15:29:52.584Z,2.20
2023-04-15T15:32:19.316Z,1.30
2023-04-15T15:34:45.952Z,2.05
2023-04-15T15:37:12.492Z,2.65
2023-04-15T15:39:40.078Z,8.07
2023-04-15T15:42:07.584Z,2.70
2023-04-15T15:44:36.178Z,4.18
2023-04-15T15:47:05.319Z,4.03
2023-04-15T15:49:32.130Z,9.13
2023-04-15T15:51:58.834Z,6.38
2023-04-15T15:54:25.476Z,8.68
2023-04-15T15:56:52.050Z,4.53
2023-04-15T15:59:18.760Z,5.00
2023-04-15T16:01:45.543Z,3.60
2023-04-15T16:04:12.426Z,5.18
2023-04-15T16:06:39.242Z,2.83
2023-04-15T16:09:06.078Z,3.38
2023-04-15T16:11:32.892Z,3.72
2023-04-15T16:13:59.461Z,6.13
2023-04-15T16:16:26.121Z,9.70
2023-04-15T16:18:52.746Z,4.50
2023-04-15T16:21:20.239Z,3.97
2023-04-15T16:23:47.330Z,6.57
2023-04-15T16:26:14.035Z,9.05
2023-04-15T16:28:40.747Z,7.13
2023-04-15T16:31:07.439Z,6.70
2023-04-15T16:33:34.204Z,6.38
2023-04-15T16:36:01.026Z,4.10
2023-04-15T16:38:27.570Z,4.57
2023-04-15T16:40:54.819Z,6.85
2023-04-15T16:43:22.384Z,8.02
2023-04-15T16:45:51.287Z,6.63
2023-04-15T16:48:20.956Z,7.47
2023-04-15T16:50:49.058Z,7.47
2023-04-15T16:53:16.393Z,7.47
2023-04-15T16:55:42.937Z,4.65
2023-04-15T16:58:09.593Z,5.72
2023-04-15T17:00:36.957Z,8.13
2023-04-15T17:03:04.884Z,6.22
2023-04-15T17:05:31.655Z,3.90
2023-04-15T17:07:58.543Z,4.13
2023-04-15T17:10:25.149Z,9.75
2023-04-15T17:12:52.459Z,8.60
2023-04-15T17:15:19.861Z,8.70
2023-04-15T17:20:42.105Z,9.13
2023-04-15T17:23:17.964Z,3.97
2023-04-15T17:29:03.077Z,8.88
2023-04-15T17:31:42.959Z,10.90
2023-04-15T17:34:11.213Z,9.50
2023-04-15T17:36:38.724Z,8.32
2023-04-15T17:39:05.588Z,6.88
2023-04-15T17:41:32.462Z,4.10
2023-04-15T17:43:59.005Z,4.90
2023-04-15T17:46:26.546Z,7.93
2023-04-15T17:48:53.227Z,10.60
2023-04-15T17:51:19.842Z,4.13
2023-04-15T17:53:46.393Z,7.05
2023-04-15T17:56:13.064Z,7.47
2023-04-15T17:58:39.665Z,14.32
2023-04-15T18:01:07.328Z,8.90
2023-04-15T18:03:34.033Z,5.65
2023-04-15T18:06:01.335Z,7.72
2023-04-15T18:08:29.024Z,11.32
2023-04-15T18:10:56.334Z,21.65
2023-04-15T18:13:22.968Z,16.58
2023-04-15T18:15:51.232Z,15.68
2023-04-15T18:18:17.969Z,11.88
2023-04-15T18:20:44.570Z,12.35
2023-04-15T18:23:11.209Z,11.85
2023-04-15T18:25:38.314Z,13.30
2023-04-15T18:28:05.581Z,12.95
2023-04-15T18:30:32.335Z,13.07
2023-04-15T18:32:58.894Z,15.90
2023-04-15T18:35:25.744Z,12.82
2023-04-15T18:37:52.937Z,11.95
2023-04-15T18:40:19.589Z,10.15
2023-04-15T18:42:46.261Z,5.60
2023-04-15T18:45:12.870Z,9.60
2023-04-15T18:47:39.738Z,11.90
2023-04-15T18:50:07.595Z,9.15
2023-04-15T18:52:34.418Z,9.77
2023-04-15T18:55:03.043Z,6.78
2023-04-15T18:57:34.865Z,12.95
2023-04-15T19:00:02.067Z,8.30
2023-04-15T19:02:28.860Z,7.22
2023-04-15T19:04:55.585Z,20.88
2023-04-15T19:07:23.066Z,9.48
2023-04-15T19:09:49.745Z,10.73
2023-04-15T19:12:16.303Z,6.65
2023-04-15T19:14:42.885Z,16.70
2023-04-15T19:17:09.521Z,9.48
2023-04-15T19:19:36.860Z,7.68
2023-04-15T19:22:03.572Z,16.13
2023-04-15T19:24:33.422Z,8.85
2023-04-15T19:27:00.173Z,11.30
2023-04-15T19:29:28.516Z,10.85
2023-04-15T19:31:55.215Z,7.95
2023-04-15T19:34:21.901Z,6.00
2023-04-15T19:36:48.608Z,5.93
2023-04-15T19:39:15.372Z,9.95
2023-04-15T19:41:42.162Z,9.52
2023-04-15T19:44:08.758Z,9.05
2023-04-15T19:46:35.710Z,8.23
2023-04-15T19:49:02.495Z,6.40
2023-04-15T19:51:29.596Z,10.60
2023-04-15T19:53:56.858Z,7.43
2023-04-15T19:56:24.134Z,9.32
2023-04-15T19:58:52.925Z,8.45
2023-04-15T20:01:20.387Z,4.82
2023-04-15T20:03:47.588Z,5.75
2023-04-15T20:06:15.517Z,3.95
2023-04-15T20:08:42.130Z,10.43
2023-04-15T20:11:10.132Z,14.25
2023-04-15T20:13:36.779Z,7.13
2023-04-15T20:16:05.783Z,7.38
2023-04-15T20:18:32.389Z,8.80
2023-04-15T20:20:59.088Z,6.22
2023-04-15T20:23:25.730Z,7.40
2023-04-15T20:25:52.449Z,5.70
2023-04-15T20:28:19.291Z,8.40
2023-04-15T20:30:47.105Z,11.18
2023-04-15T20:33:14.225Z,9.48
2023-04-15T20:35:41.063Z,8.63
2023-04-15T20:38:07.744Z,6.15
2023-04-15T20:40:34.410Z,4.93
2023-04-15T20:43:01.129Z,8.93
2023-04-15T20:45:27.799Z,7.18
2023-04-15T20:47:56.027Z,11.05
2023-04-15T20:50:22.816Z,13.50
2023-04-15T20:52:49.493Z,11.63
2023-04-15T20:55:16.210Z,9.63
2023-04-15T20:57:42.878Z,10.07
2023-04-15T21:00:10.920Z,10.15
2023-04-15T21:02:38.260Z,10.35
2023-04-15T21:05:05.764Z,5.85
2023-04-15T21:07:32.494Z,9.05
2023-04-15T21:09:59.109Z,10.60
2023-04-15T21:12:25.791Z,10.68
2023-04-15T21:14:52.420Z,10.07
2023-04-15T21:17:19.226Z,9.25
2023-04-15T21:19:45.918Z,8.05
2023-04-15T21:22:12.447Z,8.38
2023-04-15T21:24:39.053Z,8.93
2023-04-15T21:27:05.838Z,8.23
2023-04-15T21:29:32.364Z,8.25
2023-04-15T21:31:59.098Z,9.77
2023-04-15T21:34:25.797Z,11.48
2023-04-15T21:36:52.417Z,8.65
2023-04-15T21:39:19.050Z,10.95
2023-04-15T21:41:45.825Z,7.50
2023-04-15T21:44:14.571Z,8.50
2023-04-15T21:46:42.073Z,9.52
2023-04-15T21:49:14.071Z,5.63
2023-04-15T21:51:40.628Z,10.32
2023-04-15T21:54:07.457Z,12.52
2023-04-15T21:56:34.164Z,9.63
2023-04-15T21:59:01.052Z,9.02
2023-04-15T22:01:27.841Z,8.57
2023-04-15T22:03:54.829Z,6.05
2023-04-15T22:06:21.686Z,7.40
2023-04-15T22:09:11.335Z,4.50
2023-04-15T22:11:36.600Z,4.85
2023-04-15T22:14:03.264Z,9.00
2023-04-15T22:16:29.848Z,7.47
2023-04-15T22:18:56.591Z,8.15
2023-04-15T22:21:23.604Z,7.95
2023-04-15T22:23:51.514Z,6.28
2023-04-15T22:26:18.286Z,4.63
2023-04-15T22:28:45.255Z,8.93
2023-04-15T22:31:11.792Z,6.18
2023-04-15T22:33:38.939Z,8.25
2023-04-15T22:36:06.222Z,13.68
2023-04-15T22:38:32.970Z,8.25
2023-04-15T22:40:59.603Z,10.05
2023-04-15T22:43:27.460Z,5.97
2023-04-15T22:45:54.816Z,7.95
2023-04-15T22:48:21.611Z,13.75
2023-04-15T22:50:48.534Z,10.77
2023-04-15T22:53:17.235Z,10.05
2023-04-15T22:55:48.233Z,8.65
2023-04-15T22:58:15.852Z,10.68
2023-04-15T23:00:42.780Z,9.00
2023-04-15T23:03:09.525Z,7.95
2023-04-15T23:05:36.567Z,11.25
2023-04-15T23:08:03.442Z,15.73
2023-04-15T23:10:30.321Z,8.40
2023-04-15T23:12:56.929Z,10.43
2023-04-15T23:15:23.659Z,9.93
2023-04-15T23:17:50.409Z,11.98
2023-04-15T23:20:17.017Z,6.75
2023-04-15T23:22:43.616Z,14.95
2023-04-15T23:25:10.265Z,11.57
2023-04-15T23:27:36.941Z,11.63
2023-04-15T23:30:04.021Z,9.68
2023-04-15T23:32:30.883Z,11.98
2023-04-15T23:34:57.462Z,13.18
2023-04-15T23:37:24.241Z,9.82
2023-04-15T23:39:50.888Z,12.75
2023-04-15T23:42:17.495Z,13.55
2023-04-15T23:44:44.852Z,8.50
2023-04-15T23:47:11.523Z,13.23
2023-04-15T23:49:40.922Z,10.07
2023-04-15T23:52:08.001Z,15.27
2023-04-15T23:54:34.754Z,8.40
2023-04-15T23:57:01.561Z,11.80
2023-04-15T23:59:28.378Z,10.23
